createdAt,value
2019-03-29T00:00:00.472Z,8.83
2019-03-29T00:02:29.342Z,7.97
2019-03-29T00:04:58.060Z,8.17
2019-03-29T00:07:39.009Z,7.00
2019-03-29T00:09:57.350Z,6.63
2019-03-29T00:12:26.139Z,7.97
2019-03-29T00:14:54.853Z,6.60
2019-03-29T00:17:23.698Z,7.10
2019-03-29T00:19:52.421Z,6.83
2019-03-29T00:22:23.806Z,7.87
2019-03-29T00:24:53.615Z,9.60
2019-03-29T00:27:22.334Z,10.27
2019-03-29T00:29:51.057Z,9.40
2019-03-29T00:32:19.814Z,8.10
2019-03-29T00:34:48.535Z,6.30
2019-03-29T00:37:17.312Z,7.40
2019-03-29T00:39:46.906Z,7.70
2019-03-29T00:42:16.938Z,7.03
2019-03-29T00:44:45.917Z,6.03
2019-03-29T00:47:14.679Z,6.23
2019-03-29T00:49:43.393Z,5.90
2019-03-29T00:52:12.133Z,5.90
2019-03-29T00:54:40.906Z,5.53
2019-03-29T00:57:09.619Z,5.77
2019-03-29T00:59:38.332Z,5.73
2019-03-29T01:02:07.120Z,6.77
2019-03-29T01:04:35.852Z,7.43
2019-03-29T01:07:04.969Z,6.73
2019-03-29T01:09:34.041Z,6.07
2019-03-29T01:12:02.757Z,6.47
2019-03-29T01:14:31.529Z,7.10
2019-03-29T01:17:00.311Z,6.47
2019-03-29T01:19:29.223Z,6.00
2019-03-29T01:21:58.631Z,5.53
2019-03-29T01:24:27.402Z,6.30
2019-03-29T01:26:56.125Z,6.67
2019-03-29T01:29:24.840Z,5.53
2019-03-29T01:31:53.701Z,10.57
2019-03-29T01:34:22.434Z,10.13
2019-03-29T01:36:51.144Z,9.87
2019-03-29T01:39:20.037Z,12.80
2019-03-29T01:41:48.763Z,18.73
2019-03-29T01:44:17.480Z,22.53
2019-03-29T01:46:46.242Z,15.73
2019-03-29T01:49:15.882Z,13.90
2019-03-29T01:51:44.762Z,8.00
2019-03-29T01:54:13.841Z,8.90
2019-03-29T01:56:42.569Z,10.10
2019-03-29T01:59:11.289Z,11.63
2019-03-29T02:01:40.146Z,14.23
2019-03-29T02:04:08.877Z,14.73
2019-03-29T02:06:37.606Z,11.07
2019-03-29T02:09:06.657Z,11.30
2019-03-29T02:11:35.382Z,12.33
2019-03-29T02:14:04.211Z,13.50
2019-03-29T02:16:33.042Z,15.70
2019-03-29T02:19:01.765Z,15.23
2019-03-29T02:21:30.905Z,14.67
2019-03-29T02:23:59.791Z,12.97
2019-03-29T02:26:28.522Z,10.90
2019-03-29T02:28:57.247Z,13.33
2019-03-29T02:31:27.795Z,14.93
2019-03-29T02:33:56.791Z,18.63
2019-03-29T02:36:25.517Z,16.70
2019-03-29T02:38:56.254Z,16.07
2019-03-29T02:41:24.735Z,15.70
2019-03-29T02:43:53.456Z,16.13
2019-03-29T02:46:22.252Z,19.57
2019-03-29T02:48:50.981Z,23.50
2019-03-29T02:51:19.702Z,22.93
2019-03-29T02:53:48.515Z,20.53
2019-03-29T02:56:17.270Z,22.90
2019-03-29T02:58:45.969Z,31.77
2019-03-29T03:01:14.767Z,37.67
2019-03-29T03:03:43.487Z,35.37
2019-03-29T03:06:12.204Z,30.80
2019-03-29T03:08:40.995Z,25.17
2019-03-29T03:11:09.717Z,20.37
2019-03-29T03:13:38.443Z,18.03
2019-03-29T03:16:07.319Z,16.27
2019-03-29T03:18:36.315Z,15.70
2019-03-29T03:21:05.039Z,16.37
2019-03-29T03:23:33.836Z,16.27
2019-03-29T03:26:02.561Z,16.73
2019-03-29T03:28:31.286Z,19.07
2019-03-29T03:31:00.176Z,18.63
2019-03-29T03:33:28.906Z,27.60
2019-03-29T03:35:57.647Z,26.73
2019-03-29T03:38:26.524Z,29.73
2019-03-29T03:40:55.229Z,32.80
2019-03-29T03:43:23.963Z,33.00
2019-03-29T03:45:52.778Z,34.97
2019-03-29T03:48:21.504Z,33.60
2019-03-29T03:50:50.235Z,36.13
2019-03-29T03:53:19.112Z,39.13
2019-03-29T03:55:47.837Z,36.70
2019-03-29T03:58:17.979Z,30.67
2019-03-29T04:00:55.312Z,31.20
2019-03-29T04:03:24.611Z,39.23
2019-03-29T04:05:53.355Z,40.73
2019-03-29T04:08:22.317Z,42.83
2019-03-29T04:10:51.051Z,41.00
2019-03-29T04:13:19.776Z,41.77
2019-03-29T04:15:48.617Z,38.13
2019-03-29T04:18:17.397Z,44.93
2019-03-29T04:20:46.226Z,52.20
2019-03-29T04:23:15.105Z,132.77
2019-03-29T04:25:43.857Z,66.13
2019-03-29T04:28:12.697Z,53.87
2019-03-29T04:30:41.473Z,54.00
2019-03-29T04:33:11.308Z,54.67
2019-03-29T04:35:40.420Z,34.27
2019-03-29T04:38:09.381Z,36.57
2019-03-29T04:40:38.103Z,34.60
2019-03-29T04:43:06.839Z,33.83
2019-03-29T04:45:36.183Z,36.07
2019-03-29T04:48:06.140Z,37.00
2019-03-29T04:50:34.846Z,39.50
2019-03-29T04:53:03.614Z,39.70
2019-03-29T04:55:32.344Z,40.13
2019-03-29T04:58:01.070Z,38.80
2019-03-29T05:00:30.106Z,40.63
2019-03-29T05:02:58.833Z,35.20
2019-03-29T05:05:27.561Z,35.27
2019-03-29T05:07:56.445Z,34.20
2019-03-29T05:10:25.176Z,35.80
2019-03-29T05:12:53.906Z,34.30
2019-03-29T05:15:22.688Z,32.67
2019-03-29T05:17:51.425Z,31.97
2019-03-29T05:20:20.146Z,30.20
2019-03-29T05:22:48.944Z,22.37
2019-03-29T05:25:17.667Z,23.00
2019-03-29T05:27:46.395Z,27.80
2019-03-29T05:30:15.582Z,32.00
2019-03-29T05:32:44.312Z,32.40
2019-03-29T05:35:13.037Z,29.80
2019-03-29T05:37:41.817Z,30.20
2019-03-29T05:40:10.554Z,33.90
2019-03-29T05:42:39.280Z,37.70
2019-03-29T05:45:08.329Z,40.27
2019-03-29T05:47:37.068Z,46.87
2019-03-29T05:50:07.516Z,48.00
2019-03-29T05:52:48.777Z,48.37
2019-03-29T05:55:17.496Z,50.23
2019-03-29T05:57:46.234Z,53.50
2019-03-29T06:00:16.926Z,49.13
2019-03-29T06:02:45.657Z,36.20
2019-03-29T06:05:14.394Z,42.13
2019-03-29T06:07:43.278Z,39.23
2019-03-29T06:10:12.307Z,43.07
2019-03-29T06:12:41.053Z,37.17
2019-03-29T06:15:10.013Z,26.93
2019-03-29T06:17:48.668Z,26.67
2019-03-29T06:20:09.692Z,24.13
2019-03-29T06:22:41.878Z,22.37
2019-03-29T06:25:12.310Z,21.63
2019-03-29T06:27:41.024Z,16.73
2019-03-29T06:30:10.407Z,15.03
2019-03-29T06:32:39.137Z,13.83
2019-03-29T06:35:08.380Z,10.20
2019-03-29T06:37:39.529Z,8.73
2019-03-29T06:40:11.160Z,7.10
2019-03-29T06:42:41.694Z,7.17
2019-03-29T06:45:11.110Z,6.80
2019-03-29T06:47:39.837Z,9.13
2019-03-29T06:50:08.655Z,7.77
2019-03-29T06:52:37.427Z,6.77
2019-03-29T06:55:06.539Z,7.67
2019-03-29T06:57:35.272Z,5.57
2019-03-29T07:00:04.864Z,8.30
2019-03-29T07:02:33.583Z,6.50
2019-03-29T07:05:02.314Z,7.07
2019-03-29T07:07:31.182Z,5.90
2019-03-29T07:09:59.913Z,5.03
2019-03-29T07:12:28.628Z,4.97
2019-03-29T07:14:57.373Z,4.80
2019-03-29T07:17:26.154Z,4.07
2019-03-29T07:19:54.886Z,4.27
2019-03-29T07:22:23.683Z,4.83
2019-03-29T07:24:52.395Z,5.00
2019-03-29T07:27:21.942Z,5.00
2019-03-29T07:29:50.731Z,4.90
2019-03-29T07:32:19.448Z,4.73
2019-03-29T07:34:49.323Z,5.60
2019-03-29T07:37:18.627Z,5.27
2019-03-29T07:39:47.349Z,4.73
2019-03-29T07:42:16.070Z,5.57
2019-03-29T07:44:44.963Z,5.80
2019-03-29T07:47:13.685Z,5.47
2019-03-29T07:49:42.407Z,5.10
2019-03-29T07:52:11.192Z,5.50
2019-03-29T07:54:39.916Z,4.47
2019-03-29T07:57:08.639Z,5.40
2019-03-29T07:59:37.731Z,4.80
2019-03-29T08:02:06.465Z,5.40
2019-03-29T08:04:35.191Z,6.57
2019-03-29T08:07:03.966Z,5.07
2019-03-29T08:09:32.680Z,5.50
2019-03-29T08:12:01.418Z,5.90
2019-03-29T08:14:30.375Z,5.60
2019-03-29T08:16:59.174Z,5.40
2019-03-29T08:19:27.891Z,5.13
2019-03-29T08:21:57.951Z,5.03
2019-03-29T08:24:26.870Z,5.03
2019-03-29T08:26:55.589Z,5.17
2019-03-29T08:29:24.684Z,5.97
2019-03-29T08:31:55.489Z,5.60
2019-03-29T08:34:23.860Z,4.43
2019-03-29T08:36:53.001Z,4.63
2019-03-29T08:39:27.873Z,4.43
2019-03-29T08:42:00.081Z,3.87
2019-03-29T08:44:22.656Z,4.20
2019-03-29T08:46:51.391Z,4.60
2019-03-29T08:49:20.113Z,4.33
2019-03-29T08:51:48.918Z,5.17
2019-03-29T08:54:17.646Z,4.30
2019-03-29T08:56:46.370Z,4.83
2019-03-29T08:59:17.451Z,4.80
2019-03-29T09:01:45.916Z,5.23
2019-03-29T09:04:14.638Z,4.90
2019-03-29T09:06:53.325Z,4.77
2019-03-29T09:09:14.154Z,5.00
2019-03-29T09:11:42.879Z,4.73
2019-03-29T09:14:11.773Z,9.00
2019-03-29T09:16:40.499Z,5.20
2019-03-29T09:19:09.226Z,4.83
2019-03-29T09:21:38.369Z,7.27
2019-03-29T09:24:20.742Z,4.93
2019-03-29T09:26:37.530Z,5.10
2019-03-29T09:29:06.398Z,5.37
2019-03-29T09:31:35.133Z,21.23
2019-03-29T09:34:03.860Z,5.67
2019-03-29T09:36:32.740Z,9.57
2019-03-29T09:39:01.478Z,10.40
2019-03-29T09:41:30.205Z,8.10
2019-03-29T09:43:58.982Z,6.20
2019-03-29T09:46:27.687Z,5.63
2019-03-29T09:48:56.409Z,6.03
2019-03-29T09:51:25.335Z,6.00
2019-03-29T09:53:54.056Z,6.17
2019-03-29T09:56:22.785Z,7.73
2019-03-29T09:58:51.591Z,6.40
2019-03-29T10:01:20.898Z,5.93
2019-03-29T10:03:49.819Z,6.37
2019-03-29T10:06:18.697Z,5.77
2019-03-29T10:08:47.416Z,4.87
2019-03-29T10:11:16.143Z,4.90
2019-03-29T10:13:45.398Z,5.43
2019-03-29T10:16:14.128Z,5.20
2019-03-29T10:18:42.846Z,5.43
2019-03-29T10:21:11.616Z,6.27
2019-03-29T10:23:40.344Z,5.13
2019-03-29T10:26:09.075Z,6.30
2019-03-29T10:28:37.941Z,6.40
2019-03-29T10:31:06.676Z,12.90
2019-03-29T10:33:35.402Z,5.33
2019-03-29T10:36:04.180Z,5.00
2019-03-29T10:38:32.906Z,5.70
2019-03-29T10:41:01.627Z,5.77
2019-03-29T10:43:30.752Z,4.73
2019-03-29T10:45:59.597Z,10.47
2019-03-29T10:48:28.323Z,9.60
2019-03-29T10:50:57.318Z,6.50
2019-03-29T10:53:28.716Z,5.23
2019-03-29T10:55:56.489Z,4.93
2019-03-29T10:58:25.253Z,5.13
2019-03-29T11:00:54.036Z,5.80
2019-03-29T11:03:22.766Z,4.70
2019-03-29T11:05:51.618Z,5.03
2019-03-29T11:08:20.334Z,5.23
2019-03-29T11:10:49.056Z,5.47
2019-03-29T11:13:18.004Z,5.80
2019-03-29T11:15:46.842Z,5.43
2019-03-29T11:18:15.874Z,5.70
2019-03-29T11:20:44.747Z,5.73
2019-03-29T11:23:13.473Z,5.60
2019-03-29T11:25:42.198Z,5.20
2019-03-29T11:28:10.980Z,5.37
2019-03-29T11:30:42.406Z,6.10
2019-03-29T11:33:10.159Z,5.80
2019-03-29T11:35:38.991Z,5.60
2019-03-29T11:38:07.730Z,5.73
2019-03-29T11:40:36.448Z,4.83
2019-03-29T11:43:05.631Z,6.27
2019-03-29T11:45:34.749Z,5.10
2019-03-29T11:48:08.767Z,5.33
2019-03-29T11:50:34.011Z,17.87
2019-03-29T11:53:02.733Z,7.33
2019-03-29T11:55:31.466Z,6.00
2019-03-29T11:58:00.334Z,5.53
2019-03-29T12:00:36.640Z,6.40
2019-03-29T12:03:09.194Z,5.73
2019-03-29T12:05:37.268Z,6.70
2019-03-29T12:08:06.487Z,6.17
2019-03-29T12:10:35.450Z,7.93
2019-03-29T12:13:04.874Z,6.43
2019-03-29T12:15:33.602Z,6.23
2019-03-29T12:18:02.466Z,8.03
2019-03-29T12:20:31.194Z,9.57
2019-03-29T12:23:00.018Z,6.60
2019-03-29T12:25:29.173Z,6.53
2019-03-29T12:27:57.891Z,6.00
2019-03-29T12:30:31.940Z,5.90
2019-03-29T12:32:57.453Z,7.13
2019-03-29T12:35:26.174Z,6.07
2019-03-29T12:37:54.930Z,6.37
2019-03-29T12:40:23.818Z,6.70
2019-03-29T12:42:52.547Z,5.30
2019-03-29T12:45:22.739Z,6.27
2019-03-29T12:47:51.611Z,5.90
2019-03-29T12:50:20.333Z,9.43
2019-03-29T12:52:49.066Z,5.40
2019-03-29T12:55:18.364Z,5.33
2019-03-29T12:57:47.101Z,11.07
2019-03-29T13:00:16.438Z,19.53
2019-03-29T13:02:45.297Z,5.90
2019-03-29T13:05:14.121Z,5.20
2019-03-29T13:07:42.852Z,6.47
2019-03-29T13:10:12.118Z,4.43
2019-03-29T13:12:40.846Z,4.40
2019-03-29T13:15:09.969Z,4.17
2019-03-29T13:17:39.358Z,4.27
2019-03-29T13:20:08.788Z,3.83
2019-03-29T13:22:37.619Z,3.30
2019-03-29T13:25:07.833Z,5.43
2019-03-29T13:27:36.597Z,6.10
2019-03-29T13:30:07.493Z,3.60
2019-03-29T13:32:36.349Z,3.40
2019-03-29T13:35:06.772Z,2.90
2019-03-29T13:37:35.497Z,3.80
2019-03-29T13:40:09.696Z,5.70
2019-03-29T13:42:38.447Z,4.83
2019-03-29T13:45:08.672Z,4.60
2019-03-29T13:47:37.675Z,9.27
2019-03-29T13:50:09.002Z,4.90
2019-03-29T13:52:48.439Z,4.30
2019-03-29T13:55:17.184Z,4.07
2019-03-29T13:57:48.214Z,4.00
2019-03-29T14:00:18.091Z,5.53
2019-03-29T14:02:46.811Z,26.47
2019-03-29T14:05:15.636Z,5.20
2019-03-29T14:07:44.507Z,5.27
2019-03-29T14:10:13.728Z,5.07
2019-03-29T14:12:42.454Z,3.47
2019-03-29T14:15:12.555Z,3.93
2019-03-29T14:17:41.280Z,5.40
2019-03-29T14:20:10.506Z,5.33
2019-03-29T14:22:39.465Z,7.13
2019-03-29T14:25:09.703Z,21.57
2019-03-29T14:27:38.512Z,21.83
2019-03-29T14:30:08.876Z,14.37
2019-03-29T14:32:37.597Z,8.00
2019-03-29T14:35:08.440Z,10.53
2019-03-29T14:37:37.229Z,7.10
2019-03-29T14:40:08.257Z,9.50
2019-03-29T14:42:36.995Z,8.47
2019-03-29T14:45:07.437Z,5.67
2019-03-29T14:47:43.301Z,6.63
2019-03-29T14:50:08.410Z,8.23
2019-03-29T14:52:37.306Z,9.23
2019-03-29T14:55:07.035Z,14.97
2019-03-29T14:57:35.768Z,9.57
2019-03-29T15:00:07.061Z,11.77
2019-03-29T15:02:35.793Z,6.23
2019-03-29T15:05:07.009Z,5.10
2019-03-29T15:07:36.982Z,8.73
2019-03-29T15:10:14.435Z,7.10
2019-03-29T15:12:43.313Z,4.73
2019-03-29T15:15:12.039Z,7.20
2019-03-29T15:17:40.762Z,9.20
2019-03-29T15:20:09.923Z,6.17
2019-03-29T15:22:38.649Z,15.37
2019-03-29T15:25:07.477Z,13.37
2019-03-29T15:27:36.342Z,21.87
2019-03-29T15:30:07.475Z,20.70
2019-03-29T15:32:36.210Z,8.40
2019-03-29T15:35:06.595Z,7.47
2019-03-29T15:37:35.322Z,7.93
2019-03-29T15:40:05.654Z,14.90
2019-03-29T15:42:34.975Z,9.70
2019-03-29T15:45:04.799Z,8.03
2019-03-29T15:47:33.598Z,11.23
2019-03-29T15:50:02.753Z,12.67
2019-03-29T15:52:31.495Z,11.83
2019-03-29T15:55:00.380Z,11.00
2019-03-29T15:57:29.280Z,16.60
2019-03-29T15:59:58.010Z,21.00
2019-03-29T16:02:26.753Z,18.53
2019-03-29T16:04:55.666Z,19.70
2019-03-29T16:07:24.396Z,17.83
2019-03-29T16:09:53.127Z,48.27
2019-03-29T16:12:22.030Z,20.50
2019-03-29T16:14:50.760Z,27.20
2019-03-29T16:17:19.496Z,12.97
2019-03-29T16:19:48.263Z,11.77
2019-03-29T16:22:17.011Z,12.97
2019-03-29T16:24:45.759Z,18.43
2019-03-29T16:27:14.625Z,18.77
2019-03-29T16:29:43.448Z,26.77
2019-03-29T16:32:12.181Z,23.67
2019-03-29T16:34:41.053Z,14.13
2019-03-29T16:37:09.772Z,7.57
2019-03-29T16:39:38.495Z,6.27
2019-03-29T16:42:07.378Z,6.23
2019-03-29T16:44:36.094Z,6.60
2019-03-29T16:47:04.820Z,6.63
2019-03-29T16:49:33.691Z,9.63
2019-03-29T16:52:02.427Z,11.73
2019-03-29T16:54:31.153Z,14.30
2019-03-29T16:56:59.949Z,12.70
2019-03-29T16:59:28.681Z,9.27
2019-03-29T17:01:57.416Z,10.70
2019-03-29T17:04:26.203Z,9.93
2019-03-29T17:06:54.930Z,7.90
2019-03-29T17:09:23.653Z,9.03
2019-03-29T17:11:52.529Z,6.90
2019-03-29T17:14:21.247Z,6.40
2019-03-29T17:16:52.801Z,10.03
2019-03-29T17:19:20.476Z,11.43
2019-03-29T17:21:49.202Z,10.37
2019-03-29T17:24:17.938Z,10.20
2019-03-29T17:26:46.882Z,11.93
2019-03-29T17:29:18.102Z,11.43
2019-03-29T17:31:46.829Z,7.97
2019-03-29T17:34:16.416Z,6.60
2019-03-29T17:36:45.151Z,11.20
2019-03-29T17:39:13.888Z,15.07
2019-03-29T17:41:42.747Z,21.30
2019-03-29T17:44:11.476Z,13.73
2019-03-29T17:46:40.267Z,8.50
2019-03-29T17:49:09.075Z,9.90
2019-03-29T17:51:37.795Z,10.80
2019-03-29T17:54:06.523Z,11.20
2019-03-29T17:56:35.325Z,8.17
2019-03-29T17:59:04.055Z,10.80
2019-03-29T18:01:32.776Z,10.87
2019-03-29T18:04:01.539Z,11.43
2019-03-29T18:06:30.276Z,12.30
2019-03-29T18:08:59.003Z,11.23
2019-03-29T18:11:28.054Z,13.27
2019-03-29T18:13:56.782Z,10.47
2019-03-29T18:16:30.868Z,16.33
2019-03-29T18:18:56.150Z,19.27
2019-03-29T18:21:24.877Z,14.40
2019-03-29T18:23:53.618Z,11.73
2019-03-29T18:26:22.489Z,15.53
2019-03-29T18:28:51.219Z,12.00
2019-03-29T18:31:20.019Z,13.47
2019-03-29T18:33:49.086Z,15.47
2019-03-29T18:36:17.818Z,12.03
2019-03-29T18:38:49.044Z,9.60
2019-03-29T18:41:17.895Z,10.70
2019-03-29T18:43:46.614Z,8.10
2019-03-29T18:46:15.337Z,6.93
2019-03-29T18:48:46.921Z,10.13
2019-03-29T18:51:15.656Z,13.13
2019-03-29T18:53:44.385Z,11.27
2019-03-29T18:56:13.175Z,22.87
2019-03-29T18:58:41.898Z,15.83
2019-03-29T19:01:10.724Z,9.20
2019-03-29T19:03:39.602Z,10.47
2019-03-29T19:06:08.326Z,9.37
2019-03-29T19:08:37.051Z,11.43
2019-03-29T19:11:05.929Z,14.83
2019-03-29T19:13:34.658Z,18.57
2019-03-29T19:16:03.394Z,14.03
2019-03-29T19:18:32.206Z,15.10
2019-03-29T19:21:00.934Z,20.83
2019-03-29T19:23:29.659Z,15.27
2019-03-29T19:25:58.468Z,8.97
2019-03-29T19:28:27.182Z,10.43
2019-03-29T19:30:55.901Z,8.17
2019-03-29T19:33:24.716Z,7.77
2019-03-29T19:35:53.438Z,6.07
2019-03-29T19:38:22.148Z,5.90
2019-03-29T19:40:51.270Z,5.33
2019-03-29T19:43:20.289Z,5.27
2019-03-29T19:45:49.178Z,5.70
2019-03-29T19:48:18.247Z,7.67
2019-03-29T19:50:47.276Z,7.50
2019-03-29T19:53:17.315Z,8.00
2019-03-29T19:55:46.197Z,9.83
2019-03-29T19:58:14.991Z,9.30
2019-03-29T20:00:44.457Z,8.20
2019-03-29T20:03:13.319Z,9.43
2019-03-29T20:05:42.022Z,7.33
2019-03-29T20:08:10.740Z,6.17
2019-03-29T20:10:39.802Z,4.60
2019-03-29T20:13:08.516Z,4.40
2019-03-29T20:15:37.336Z,4.90
2019-03-29T20:18:06.396Z,4.63
2019-03-29T20:20:35.119Z,5.03
2019-03-29T20:23:06.997Z,5.53
2019-03-29T20:25:35.781Z,5.07
2019-03-29T20:28:04.711Z,4.93
2019-03-29T20:30:33.415Z,5.83
2019-03-29T20:33:02.614Z,4.97
2019-03-29T20:35:31.471Z,6.43
2019-03-29T20:38:00.207Z,6.47
2019-03-29T20:40:31.965Z,5.40
2019-03-29T20:42:59.448Z,5.30
2019-03-29T20:45:28.161Z,4.97
2019-03-29T20:47:57.023Z,5.23
2019-03-29T20:50:26.341Z,4.97
2019-03-29T20:52:55.113Z,5.20
2019-03-29T20:55:23.957Z,5.67
2019-03-29T20:57:52.680Z,5.13
2019-03-29T21:00:21.490Z,4.83
2019-03-29T21:02:50.355Z,5.40
2019-03-29T21:05:19.074Z,4.93
2019-03-29T21:07:47.787Z,4.63
2019-03-29T21:10:16.752Z,5.10
2019-03-29T21:12:45.513Z,4.83
2019-03-29T21:15:14.361Z,4.80
2019-03-29T21:17:55.831Z,4.57
2019-03-29T21:20:14.637Z,4.80
2019-03-29T21:22:43.354Z,4.97
2019-03-29T21:25:12.427Z,4.50
2019-03-29T21:27:41.143Z,4.67
2019-03-29T21:30:11.865Z,4.37
2019-03-29T21:32:40.662Z,5.07
2019-03-29T21:35:09.377Z,4.77
2019-03-29T21:37:38.102Z,4.70
2019-03-29T21:40:08.772Z,5.27
2019-03-29T21:42:37.698Z,5.33
2019-03-29T21:45:08.110Z,5.57
2019-03-29T21:47:36.869Z,6.10
2019-03-29T21:50:08.086Z,5.90
2019-03-29T21:52:36.918Z,6.20
2019-03-29T21:55:07.189Z,6.47
2019-03-29T21:57:35.915Z,5.87
2019-03-29T22:00:12.397Z,6.23
2019-03-29T22:02:41.116Z,6.13
2019-03-29T22:05:10.707Z,5.93
2019-03-29T22:07:39.923Z,6.27
2019-03-29T22:10:10.147Z,6.33
2019-03-29T22:12:38.959Z,6.17
2019-03-29T22:15:08.827Z,6.20
2019-03-29T22:17:53.700Z,6.17
2019-03-29T22:20:18.153Z,6.10
2019-03-29T22:22:47.184Z,5.63
2019-03-29T22:25:16.073Z,6.70
2019-03-29T22:27:44.944Z,5.83
2019-03-29T22:30:17.867Z,6.50
2019-03-29T22:32:53.629Z,6.30
2019-03-29T22:35:22.356Z,6.67
2019-03-29T22:37:51.083Z,7.33
2019-03-29T22:40:20.314Z,6.70
2019-03-29T22:42:49.716Z,6.07
2019-03-29T22:45:18.439Z,6.10
2019-03-29T22:47:47.298Z,5.90
2019-03-29T22:50:16.125Z,6.20
2019-03-29T22:52:44.839Z,6.70
2019-03-29T22:55:13.636Z,6.20
2019-03-29T22:57:42.614Z,6.17
2019-03-29T23:00:16.969Z,5.77
2019-03-29T23:02:45.946Z,6.07
2019-03-29T23:05:14.859Z,5.80
2019-03-29T23:07:43.585Z,5.73
2019-03-29T23:10:12.554Z,5.90
2019-03-29T23:12:41.283Z,6.33
2019-03-29T23:15:10.022Z,5.83
2019-03-29T23:17:38.952Z,6.60
2019-03-29T23:20:07.867Z,5.97
2019-03-29T23:22:36.584Z,6.17
2019-03-29T23:25:06.341Z,6.33
2019-03-29T23:27:35.359Z,6.07
2019-03-29T23:30:05.786Z,6.10
2019-03-29T23:32:34.860Z,6.50
2019-03-29T23:35:04.186Z,6.67
2019-03-29T23:37:32.911Z,6.80
2019-03-29T23:40:01.696Z,6.87
2019-03-29T23:42:30.420Z,6.60
2019-03-29T23:44:59.138Z,7.17
2019-03-29T23:47:27.999Z,8.30
2019-03-29T23:49:56.714Z,8.23
2019-03-29T23:52:25.532Z,8.53
2019-03-29T23:54:54.417Z,9.00
2019-03-29T23:57:23.131Z,9.10
2019-03-29T23:59:51.910Z,10.30
